sensor_id;sensor_type;location;lat;lon;timestamp;P1;durP1;ratioP1;P2;durP2;ratioP2
25721;SDS011;13578;53.450;15.496;2023-03-14T00:02:54;4.65;;;1.98;;
25721;SDS011;13578;53.450;15.496;2023-03-14T00:05:55;9.57;;;2.60;;
25721;SDS011;13578;53.450;15.496;2023-03-14T00:08:56;7.88;;;3.13;;
25721;SDS011;13578;53.450;15.496;2023-03-14T00:11:57;4.25;;;2.15;;
25721;SDS011;13578;53.450;15.496;2023-03-14T00:14:57;4.85;;;2.08;;
25721;SDS011;13578;53.450;15.496;2023-03-14T00:18:00;3.35;;;2.03;;
25721;SDS011;13578;53.450;15.496;2023-03-14T00:21:02;3.97;;;2.22;;
25721;SDS011;13578;53.450;15.496;2023-03-14T00:24:04;3.67;;;2.28;;
25721;SDS011;13578;53.450;15.496;2023-03-14T00:27:05;5.18;;;1.98;;
25721;SDS011;13578;53.450;15.496;2023-03-14T00:30:06;2.83;;;1.85;;
25721;SDS011;13578;53.450;15.496;2023-03-14T00:33:08;6.78;;;2.10;;
25721;SDS011;13578;53.450;15.496;2023-03-14T00:36:09;4.57;;;2.25;;
25721;SDS011;13578;53.450;15.496;2023-03-14T00:39:15;3.22;;;1.85;;
25721;SDS011;13578;53.450;15.496;2023-03-14T00:42:16;3.40;;;1.73;;
25721;SDS011;13578;53.450;15.496;2023-03-14T00:45:17;4.95;;;2.10;;
25721;SDS011;13578;53.450;15.496;2023-03-14T00:48:18;8.05;;;2.72;;
25721;SDS011;13578;53.450;15.496;2023-03-14T00:51:19;2.80;;;1.30;;
25721;SDS011;13578;53.450;15.496;2023-03-14T00:54:20;5.22;;;1.60;;
25721;SDS011;13578;53.450;15.496;2023-03-14T00:57:21;3.15;;;2.00;;
25721;SDS011;13578;53.450;15.496;2023-03-14T01:00:21;2.05;;;1.65;;
25721;SDS011;13578;53.450;15.496;2023-03-14T01:03:22;3.05;;;1.40;;
25721;SDS011;13578;53.450;15.496;2023-03-14T01:06:25;3.35;;;1.73;;
25721;SDS011;13578;53.450;15.496;2023-03-14T01:09:26;3.83;;;1.75;;
25721;SDS011;13578;53.450;15.496;2023-03-14T01:12:27;2.17;;;1.45;;
25721;SDS011;13578;53.450;15.496;2023-03-14T01:15:28;4.45;;;1.50;;
25721;SDS011;13578;53.450;15.496;2023-03-14T01:18:29;4.13;;;1.90;;
25721;SDS011;13578;53.450;15.496;2023-03-14T01:21:30;2.28;;;1.48;;
25721;SDS011;13578;53.450;15.496;2023-03-14T01:24:33;1.83;;;1.52;;
25721;SDS011;13578;53.450;15.496;2023-03-14T01:27:33;2.72;;;1.77;;
25721;SDS011;13578;53.450;15.496;2023-03-14T01:30:34;2.88;;;1.45;;
25721;SDS011;13578;53.450;15.496;2023-03-14T01:33:34;1.80;;;1.45;;
25721;SDS011;13578;53.450;15.496;2023-03-14T01:36:35;3.00;;;1.80;;
25721;SDS011;13578;53.450;15.496;2023-03-14T01:39:36;2.50;;;1.40;;
25721;SDS011;13578;53.450;15.496;2023-03-14T01:42:37;2.13;;;1.65;;
25721;SDS011;13578;53.450;15.496;2023-03-14T01:49:26;1.52;;;1.17;;
25721;SDS011;13578;53.450;15.496;2023-03-14T01:52:36;2.53;;;1.98;;
25721;SDS011;13578;53.450;15.496;2023-03-14T01:55:49;2.17;;;1.23;;
25721;SDS011;13578;53.450;15.496;2023-03-14T01:58:52;1.23;;;1.10;;
25721;SDS011;13578;53.450;15.496;2023-03-14T02:01:53;3.53;;;1.60;;
25721;SDS011;13578;53.450;15.496;2023-03-14T02:04:55;2.42;;;1.38;;
25721;SDS011;13578;53.450;15.496;2023-03-14T02:08:00;2.20;;;1.25;;
25721;SDS011;13578;53.450;15.496;2023-03-14T02:11:02;1.20;;;1.10;;
25721;SDS011;13578;53.450;15.496;2023-03-14T02:14:04;2.13;;;1.25;;
25721;SDS011;13578;53.450;15.496;2023-03-14T02:17:05;2.53;;;1.33;;
25721;SDS011;13578;53.450;15.496;2023-03-14T02:20:10;1.60;;;1.15;;
25721;SDS011;13578;53.450;15.496;2023-03-14T02:23:12;3.17;;;1.40;;
25721;SDS011;13578;53.450;15.496;2023-03-14T02:26:24;3.38;;;1.42;;
25721;SDS011;13578;53.450;15.496;2023-03-14T02:29:35;1.15;;;1.00;;
25721;SDS011;13578;53.450;15.496;2023-03-14T02:32:42;2.08;;;0.98;;
25721;SDS011;13578;53.450;15.496;2023-03-14T02:35:47;2.22;;;1.42;;
25721;SDS011;13578;53.450;15.496;2023-03-14T02:39:13;4.57;;;1.30;;
25721;SDS011;13578;53.450;15.496;2023-03-14T02:42:20;1.75;;;1.08;;
25721;SDS011;13578;53.450;15.496;2023-03-14T02:48:36;1.83;;;1.17;;
25721;SDS011;13578;53.450;15.496;2023-03-14T02:51:46;2.25;;;1.10;;
25721;SDS011;13578;53.450;15.496;2023-03-14T02:54:47;2.53;;;1.25;;
25721;SDS011;13578;53.450;15.496;2023-03-14T02:57:48;1.63;;;1.20;;
25721;SDS011;13578;53.450;15.496;2023-03-14T03:00:48;2.38;;;1.10;;
25721;SDS011;13578;53.450;15.496;2023-03-14T03:03:49;1.25;;;1.08;;
25721;SDS011;13578;53.450;15.496;2023-03-14T03:06:50;2.00;;;1.13;;
25721;SDS011;13578;53.450;15.496;2023-03-14T03:09:50;1.58;;;1.17;;
25721;SDS011;13578;53.450;15.496;2023-03-14T03:12:51;1.98;;;1.23;;
25721;SDS011;13578;53.450;15.496;2023-03-14T03:15:52;2.95;;;1.00;;
25721;SDS011;13578;53.450;15.496;2023-03-14T03:18:52;5.20;;;1.50;;
25721;SDS011;13578;53.450;15.496;2023-03-14T03:21:53;1.50;;;1.40;;
25721;SDS011;13578;53.450;15.496;2023-03-14T03:24:54;1.75;;;1.27;;
25721;SDS011;13578;53.450;15.496;2023-03-14T03:27:54;2.72;;;1.10;;
25721;SDS011;13578;53.450;15.496;2023-03-14T03:30:55;2.10;;;1.15;;
25721;SDS011;13578;53.450;15.496;2023-03-14T03:33:56;1.98;;;1.45;;
25721;SDS011;13578;53.450;15.496;2023-03-14T03:36:57;1.38;;;1.13;;
25721;SDS011;13578;53.450;15.496;2023-03-14T03:39:58;1.50;;;1.27;;
25721;SDS011;13578;53.450;15.496;2023-03-14T03:42:59;2.58;;;1.35;;
25721;SDS011;13578;53.450;15.496;2023-03-14T03:46:04;1.67;;;1.40;;
25721;SDS011;13578;53.450;15.496;2023-03-14T03:49:05;3.97;;;1.38;;
25721;SDS011;13578;53.450;15.496;2023-03-14T03:52:06;1.30;;;1.10;;
25721;SDS011;13578;53.450;15.496;2023-03-14T03:55:07;1.23;;;1.05;;
25721;SDS011;13578;53.450;15.496;2023-03-14T03:58:08;1.20;;;1.10;;
25721;SDS011;13578;53.450;15.496;2023-03-14T04:01:08;11.25;;;1.38;;
25721;SDS011;13578;53.450;15.496;2023-03-14T04:04:10;1.83;;;1.30;;
25721;SDS011;13578;53.450;15.496;2023-03-14T04:07:11;1.52;;;1.00;;
25721;SDS011;13578;53.450;15.496;2023-03-14T04:10:14;1.95;;;1.30;;
25721;SDS011;13578;53.450;15.496;2023-03-14T04:13:14;1.10;;;0.90;;
25721;SDS011;13578;53.450;15.496;2023-03-14T04:16:19;1.63;;;1.02;;
25721;SDS011;13578;53.450;15.496;2023-03-14T04:19:22;1.35;;;1.00;;
25721;SDS011;13578;53.450;15.496;2023-03-14T04:22:22;3.65;;;1.38;;
25721;SDS011;13578;53.450;15.496;2023-03-14T04:25:23;1.13;;;1.00;;
25721;SDS011;13578;53.450;15.496;2023-03-14T04:28:23;2.10;;;1.30;;
25721;SDS011;13578;53.450;15.496;2023-03-14T04:31:24;1.88;;;1.10;;
25721;SDS011;13578;53.450;15.496;2023-03-14T04:34:25;1.95;;;1.40;;
25721;SDS011;13578;53.450;15.496;2023-03-14T04:37:25;2.85;;;1.60;;
25721;SDS011;13578;53.450;15.496;2023-03-14T04:40:26;2.38;;;1.17;;
25721;SDS011;13578;53.450;15.496;2023-03-14T04:43:27;2.17;;;1.33;;
25721;SDS011;13578;53.450;15.496;2023-03-14T04:46:28;2.88;;;1.27;;
25721;SDS011;13578;53.450;15.496;2023-03-14T04:49:28;1.75;;;1.40;;
25721;SDS011;13578;53.450;15.496;2023-03-14T04:52:29;3.70;;;1.17;;
25721;SDS011;13578;53.450;15.496;2023-03-14T04:55:30;1.40;;;1.02;;
25721;SDS011;13578;53.450;15.496;2023-03-14T04:58:32;2.50;;;1.42;;
25721;SDS011;13578;53.450;15.496;2023-03-14T05:01:33;6.75;;;1.20;;
25721;SDS011;13578;53.450;15.496;2023-03-14T05:04:34;2.15;;;1.08;;
25721;SDS011;13578;53.450;15.496;2023-03-14T05:07:34;1.65;;;1.30;;
25721;SDS011;13578;53.450;15.496;2023-03-14T05:10:35;1.40;;;1.17;;
25721;SDS011;13578;53.450;15.496;2023-03-14T05:13:36;1.35;;;1.05;;
25721;SDS011;13578;53.450;15.496;2023-03-14T05:16:36;1.75;;;1.20;;
25721;SDS011;13578;53.450;15.496;2023-03-14T05:19:37;2.03;;;1.40;;
25721;SDS011;13578;53.450;15.496;2023-03-14T05:22:38;1.35;;;1.20;;
25721;SDS011;13578;53.450;15.496;2023-03-14T05:25:39;3.28;;;1.60;;
25721;SDS011;13578;53.450;15.496;2023-03-14T05:28:39;3.75;;;1.13;;
25721;SDS011;13578;53.450;15.496;2023-03-14T05:31:40;1.52;;;1.40;;
25721;SDS011;13578;53.450;15.496;2023-03-14T05:34:41;2.65;;;1.35;;
25721;SDS011;13578;53.450;15.496;2023-03-14T05:37:41;1.77;;;1.27;;
25721;SDS011;13578;53.450;15.496;2023-03-14T05:40:42;2.92;;;1.40;;
25721;SDS011;13578;53.450;15.496;2023-03-14T05:43:42;1.40;;;1.23;;
25721;SDS011;13578;53.450;15.496;2023-03-14T05:46:43;3.20;;;1.63;;
25721;SDS011;13578;53.450;15.496;2023-03-14T05:49:44;1.42;;;1.10;;
25721;SDS011;13578;53.450;15.496;2023-03-14T05:52:44;1.52;;;1.23;;
25721;SDS011;13578;53.450;15.496;2023-03-14T05:55:45;2.17;;;1.45;;
25721;SDS011;13578;53.450;15.496;2023-03-14T05:58:45;2.30;;;1.90;;
25721;SDS011;13578;53.450;15.496;2023-03-14T06:01:46;4.32;;;1.40;;
25721;SDS011;13578;53.450;15.496;2023-03-14T06:04:47;4.70;;;1.20;;
25721;SDS011;13578;53.450;15.496;2023-03-14T06:07:47;1.77;;;1.23;;
25721;SDS011;13578;53.450;15.496;2023-03-14T06:10:48;2.35;;;1.55;;
25721;SDS011;13578;53.450;15.496;2023-03-14T06:13:48;1.70;;;1.30;;
25721;SDS011;13578;53.450;15.496;2023-03-14T06:16:49;2.28;;;1.20;;
25721;SDS011;13578;53.450;15.496;2023-03-14T06:19:50;1.70;;;1.60;;
25721;SDS011;13578;53.450;15.496;2023-03-14T06:22:51;3.47;;;1.40;;
25721;SDS011;13578;53.450;15.496;2023-03-14T06:25:51;1.65;;;1.00;;
25721;SDS011;13578;53.450;15.496;2023-03-14T06:28:52;2.22;;;1.20;;
25721;SDS011;13578;53.450;15.496;2023-03-14T06:31:53;1.63;;;1.50;;
25721;SDS011;13578;53.450;15.496;2023-03-14T06:34:54;1.30;;;1.20;;
25721;SDS011;13578;53.450;15.496;2023-03-14T06:37:57;1.33;;;1.20;;
25721;SDS011;13578;53.450;15.496;2023-03-14T06:41:02;1.55;;;1.20;;
25721;SDS011;13578;53.450;15.496;2023-03-14T06:44:07;2.33;;;1.30;;
25721;SDS011;13578;53.450;15.496;2023-03-14T06:47:07;2.35;;;1.40;;
25721;SDS011;13578;53.450;15.496;2023-03-14T06:50:08;2.35;;;2.05;;
25721;SDS011;13578;53.450;15.496;2023-03-14T06:53:10;2.13;;;1.13;;
25721;SDS011;13578;53.450;15.496;2023-03-14T06:56:10;1.38;;;1.27;;
25721;SDS011;13578;53.450;15.496;2023-03-14T06:59:11;1.75;;;1.30;;
25721;SDS011;13578;53.450;15.496;2023-03-14T07:02:12;2.75;;;1.73;;
25721;SDS011;13578;53.450;15.496;2023-03-14T07:05:13;2.03;;;1.50;;
25721;SDS011;13578;53.450;15.496;2023-03-14T07:08:13;1.58;;;1.20;;
25721;SDS011;13578;53.450;15.496;2023-03-14T07:11:14;2.95;;;1.40;;
25721;SDS011;13578;53.450;15.496;2023-03-14T07:14:15;1.38;;;1.10;;
25721;SDS011;13578;53.450;15.496;2023-03-14T07:17:15;1.38;;;1.20;;
25721;SDS011;13578;53.450;15.496;2023-03-14T07:20:16;3.60;;;1.30;;
25721;SDS011;13578;53.450;15.496;2023-03-14T07:23:17;1.70;;;1.40;;
25721;SDS011;13578;53.450;15.496;2023-03-14T07:26:17;2.63;;;1.00;;
25721;SDS011;13578;53.450;15.496;2023-03-14T07:29:18;1.77;;;1.20;;
25721;SDS011;13578;53.450;15.496;2023-03-14T07:32:19;1.38;;;1.25;;
25721;SDS011;13578;53.450;15.496;2023-03-14T07:35:19;2.10;;;1.30;;
25721;SDS011;13578;53.450;15.496;2023-03-14T07:38:20;1.65;;;1.48;;
25721;SDS011;13578;53.450;15.496;2023-03-14T07:41:20;1.42;;;1.05;;
25721;SDS011;13578;53.450;15.496;2023-03-14T07:44:23;2.05;;;1.30;;
25721;SDS011;13578;53.450;15.496;2023-03-14T07:47:23;1.30;;;1.15;;
25721;SDS011;13578;53.450;15.496;2023-03-14T07:50:24;3.25;;;1.45;;
25721;SDS011;13578;53.450;15.496;2023-03-14T07:53:26;1.50;;;1.10;;
25721;SDS011;13578;53.450;15.496;2023-03-14T07:56:26;1.95;;;1.08;;
25721;SDS011;13578;53.450;15.496;2023-03-14T07:59:27;1.23;;;1.00;;
25721;SDS011;13578;53.450;15.496;2023-03-14T08:02:28;3.70;;;1.35;;
25721;SDS011;13578;53.450;15.496;2023-03-14T08:05:29;2.05;;;1.02;;
25721;SDS011;13578;53.450;15.496;2023-03-14T08:08:30;1.52;;;1.27;;
25721;SDS011;13578;53.450;15.496;2023-03-14T08:11:30;1.48;;;1.23;;
25721;SDS011;13578;53.450;15.496;2023-03-14T08:14:31;3.75;;;1.30;;
25721;SDS011;13578;53.450;15.496;2023-03-14T08:17:32;3.40;;;1.20;;
25721;SDS011;13578;53.450;15.496;2023-03-14T08:20:32;2.63;;;1.20;;
25721;SDS011;13578;53.450;15.496;2023-03-14T08:23:33;2.47;;;1.20;;
25721;SDS011;13578;53.450;15.496;2023-03-14T08:26:34;1.73;;;1.25;;
25721;SDS011;13578;53.450;15.496;2023-03-14T08:29:34;1.80;;;1.15;;
25721;SDS011;13578;53.450;15.496;2023-03-14T08:32:35;3.85;;;1.25;;
25721;SDS011;13578;53.450;15.496;2023-03-14T08:35:39;1.77;;;1.27;;
25721;SDS011;13578;53.450;15.496;2023-03-14T08:38:39;1.70;;;1.25;;
25721;SDS011;13578;53.450;15.496;2023-03-14T08:41:42;2.78;;;1.58;;
25721;SDS011;13578;53.450;15.496;2023-03-14T08:44:44;1.85;;;1.30;;
25721;SDS011;13578;53.450;15.496;2023-03-14T08:47:45;3.20;;;1.30;;
25721;SDS011;13578;53.450;15.496;2023-03-14T08:50:45;2.45;;;0.90;;
25721;SDS011;13578;53.450;15.496;2023-03-14T08:53:46;1.60;;;1.27;;
25721;SDS011;13578;53.450;15.496;2023-03-14T08:56:47;5.15;;;1.20;;
25721;SDS011;13578;53.450;15.496;2023-03-14T08:59:47;3.42;;;1.35;;
25721;SDS011;13578;53.450;15.496;2023-03-14T09:02:48;2.97;;;1.17;;
25721;SDS011;13578;53.450;15.496;2023-03-14T09:05:49;1.73;;;1.08;;
25721;SDS011;13578;53.450;15.496;2023-03-14T09:08:51;4.00;;;1.13;;
25721;SDS011;13578;53.450;15.496;2023-03-14T09:11:51;1.05;;;0.90;;
25721;SDS011;13578;53.450;15.496;2023-03-14T09:14:52;1.55;;;1.00;;
25721;SDS011;13578;53.450;15.496;2023-03-14T09:17:52;2.15;;;1.05;;
25721;SDS011;13578;53.450;15.496;2023-03-14T09:20:53;2.83;;;1.30;;
25721;SDS011;13578;53.450;15.496;2023-03-14T09:23:55;5.30;;;1.20;;
25721;SDS011;13578;53.450;15.496;2023-03-14T09:26:56;2.25;;;1.17;;
25721;SDS011;13578;53.450;15.496;2023-03-14T09:29:57;2.40;;;1.60;;
25721;SDS011;13578;53.450;15.496;2023-03-14T09:32:57;2.60;;;1.08;;
25721;SDS011;13578;53.450;15.496;2023-03-14T09:35:59;2.10;;;1.27;;
25721;SDS011;13578;53.450;15.496;2023-03-14T09:39:00;2.05;;;1.27;;
25721;SDS011;13578;53.450;15.496;2023-03-14T09:42:02;3.13;;;1.10;;
25721;SDS011;13578;53.450;15.496;2023-03-14T09:45:11;1.30;;;1.05;;
25721;SDS011;13578;53.450;15.496;2023-03-14T09:51:24;2.55;;;1.15;;
25721;SDS011;13578;53.450;15.496;2023-03-14T09:54:46;4.50;;;0.98;;
25721;SDS011;13578;53.450;15.496;2023-03-14T09:57:50;3.38;;;1.13;;
25721;SDS011;13578;53.450;15.496;2023-03-14T10:00:58;2.05;;;0.80;;
25721;SDS011;13578;53.450;15.496;2023-03-14T10:04:04;3.20;;;1.10;;
25721;SDS011;13578;53.450;15.496;2023-03-14T10:07:29;3.30;;;1.00;;
25721;SDS011;13578;53.450;15.496;2023-03-14T10:10:31;4.68;;;1.20;;
25721;SDS011;13578;53.450;15.496;2023-03-14T10:13:32;3.33;;;1.70;;
25721;SDS011;13578;53.450;15.496;2023-03-14T10:16:34;3.65;;;1.00;;
25721;SDS011;13578;53.450;15.496;2023-03-14T10:19:58;1.42;;;1.02;;
25721;SDS011;13578;53.450;15.496;2023-03-14T10:23:00;2.22;;;0.80;;
25721;SDS011;13578;53.450;15.496;2023-03-14T10:26:17;2.33;;;0.77;;
25721;SDS011;13578;53.450;15.496;2023-03-14T10:29:28;3.45;;;1.60;;
25721;SDS011;13578;53.450;15.496;2023-03-14T10:32:35;2.40;;;1.25;;
25721;SDS011;13578;53.450;15.496;2023-03-14T10:35:37;7.00;;;1.27;;
25721;SDS011;13578;53.450;15.496;2023-03-14T10:38:38;1.83;;;0.68;;
25721;SDS011;13578;53.450;15.496;2023-03-14T10:41:38;1.77;;;1.08;;
25721;SDS011;13578;53.450;15.496;2023-03-14T10:44:39;2.85;;;0.85;;
25721;SDS011;13578;53.450;15.496;2023-03-14T10:47:47;3.85;;;1.23;;
25721;SDS011;13578;53.450;15.496;2023-03-14T10:57:27;3.10;;;0.75;;
25721;SDS011;13578;53.450;15.496;2023-03-14T11:00:28;3.38;;;0.90;;
25721;SDS011;13578;53.450;15.496;2023-03-14T11:03:33;3.80;;;1.10;;
25721;SDS011;13578;53.450;15.496;2023-03-14T11:06:42;5.45;;;1.17;;
25721;SDS011;13578;53.450;15.496;2023-03-14T11:09:53;2.00;;;0.80;;
25721;SDS011;13578;53.450;15.496;2023-03-14T11:16:19;3.13;;;1.85;;
25721;SDS011;13578;53.450;15.496;2023-03-14T11:19:49;5.68;;;0.95;;
25721;SDS011;13578;53.450;15.496;2023-03-14T11:23:37;6.20;;;1.67;;
25721;SDS011;13578;53.450;15.496;2023-03-14T11:33:08;5.78;;;0.80;;
25721;SDS011;13578;53.450;15.496;2023-03-14T11:36:24;4.28;;;1.00;;
25721;SDS011;13578;53.450;15.496;2023-03-14T11:39:36;3.60;;;0.95;;
25721;SDS011;13578;53.450;15.496;2023-03-14T11:42:41;2.92;;;0.77;;
25721;SDS011;13578;53.450;15.496;2023-03-14T11:45:44;5.78;;;0.93;;
25721;SDS011;13578;53.450;15.496;2023-03-14T11:58:39;4.70;;;1.10;;
25721;SDS011;13578;53.450;15.496;2023-03-14T12:01:52;2.35;;;0.50;;
25721;SDS011;13578;53.450;15.496;2023-03-14T12:08:46;2.97;;;0.82;;
25721;SDS011;13578;53.450;15.496;2023-03-14T12:11:52;5.82;;;1.00;;
25721;SDS011;13578;53.450;15.496;2023-03-14T12:14:59;4.22;;;1.40;;
25721;SDS011;13578;53.450;15.496;2023-03-14T12:18:02;2.33;;;0.98;;
25721;SDS011;13578;53.450;15.496;2023-03-14T12:21:03;2.08;;;0.90;;
25721;SDS011;13578;53.450;15.496;2023-03-14T12:24:14;5.60;;;1.08;;
25721;SDS011;13578;53.450;15.496;2023-03-14T12:30:44;5.65;;;0.95;;
25721;SDS011;13578;53.450;15.496;2023-03-14T12:33:44;3.88;;;1.00;;
25721;SDS011;13578;53.450;15.496;2023-03-14T12:42:57;5.90;;;1.33;;
25721;SDS011;13578;53.450;15.496;2023-03-14T12:49:18;1.40;;;0.63;;
25721;SDS011;13578;53.450;15.496;2023-03-14T12:52:20;3.28;;;1.42;;
25721;SDS011;13578;53.450;15.496;2023-03-14T12:59:13;5.10;;;1.30;;
25721;SDS011;13578;53.450;15.496;2023-03-14T13:02:29;4.20;;;1.05;;
25721;SDS011;13578;53.450;15.496;2023-03-14T13:12:41;1.27;;;1.00;;
25721;SDS011;13578;53.450;15.496;2023-03-14T13:15:49;2.97;;;0.90;;
25721;SDS011;13578;53.450;15.496;2023-03-14T13:19:01;3.10;;;0.80;;
25721;SDS011;13578;53.450;15.496;2023-03-14T13:22:05;2.25;;;0.73;;
25721;SDS011;13578;53.450;15.496;2023-03-14T13:25:19;2.42;;;0.93;;
25721;SDS011;13578;53.450;15.496;2023-03-14T13:28:21;3.25;;;0.90;;
25721;SDS011;13578;53.450;15.496;2023-03-14T13:31:23;1.02;;;0.75;;
25721;SDS011;13578;53.450;15.496;2023-03-14T13:34:31;2.63;;;1.10;;
25721;SDS011;13578;53.450;15.496;2023-03-14T13:37:39;1.45;;;0.90;;
25721;SDS011;13578;53.450;15.496;2023-03-14T13:40:40;2.80;;;0.82;;
25721;SDS011;13578;53.450;15.496;2023-03-14T13:43:43;3.97;;;0.88;;
25721;SDS011;13578;53.450;15.496;2023-03-14T13:46:44;5.57;;;1.10;;
25721;SDS011;13578;53.450;15.496;2023-03-14T13:49:45;4.03;;;0.90;;
25721;SDS011;13578;53.450;15.496;2023-03-14T13:52:48;5.03;;;0.80;;
25721;SDS011;13578;53.450;15.496;2023-03-14T13:55:57;6.05;;;1.20;;
25721;SDS011;13578;53.450;15.496;2023-03-14T13:59:02;4.68;;;1.27;;
25721;SDS011;13578;53.450;15.496;2023-03-14T14:02:36;2.38;;;1.02;;
25721;SDS011;13578;53.450;15.496;2023-03-14T14:05:30;3.03;;;1.42;;
25721;SDS011;13578;53.450;15.496;2023-03-14T14:08:32;3.03;;;1.25;;
25721;SDS011;13578;53.450;15.496;2023-03-14T14:11:36;2.88;;;1.58;;
25721;SDS011;13578;53.450;15.496;2023-03-14T14:18:12;4.88;;;0.95;;
25721;SDS011;13578;53.450;15.496;2023-03-14T14:21:16;5.30;;;0.60;;
25721;SDS011;13578;53.450;15.496;2023-03-14T14:24:17;0.55;;;0.50;;
25721;SDS011;13578;53.450;15.496;2023-03-14T14:27:23;1.02;;;0.57;;
25721;SDS011;13578;53.450;15.496;2023-03-14T14:30:32;2.47;;;0.70;;
25721;SDS011;13578;53.450;15.496;2023-03-14T14:37:22;1.48;;;0.55;;
25721;SDS011;13578;53.450;15.496;2023-03-14T14:40:26;2.15;;;0.95;;
25721;SDS011;13578;53.450;15.496;2023-03-14T14:43:28;1.13;;;0.80;;
25721;SDS011;13578;53.450;15.496;2023-03-14T14:46:35;2.53;;;1.20;;
25721;SDS011;13578;53.450;15.496;2023-03-14T14:49:37;2.22;;;0.88;;
25721;SDS011;13578;53.450;15.496;2023-03-14T14:52:42;4.90;;;0.80;;
25721;SDS011;13578;53.450;15.496;2023-03-14T14:55:44;3.13;;;1.05;;
25721;SDS011;13578;53.450;15.496;2023-03-14T14:58:45;2.03;;;0.73;;
25721;SDS011;13578;53.450;15.496;2023-03-14T15:01:47;4.32;;;1.08;;
25721;SDS011;13578;53.450;15.496;2023-03-14T15:04:48;1.10;;;0.63;;
25721;SDS011;13578;53.450;15.496;2023-03-14T15:07:48;1.40;;;0.80;;
25721;SDS011;13578;53.450;15.496;2023-03-14T15:10:50;1.60;;;1.00;;
25721;SDS011;13578;53.450;15.496;2023-03-14T15:13:52;6.78;;;1.17;;
25721;SDS011;13578;53.450;15.496;2023-03-14T15:16:57;3.10;;;1.10;;
25721;SDS011;13578;53.450;15.496;2023-03-14T15:19:59;1.85;;;1.13;;
25721;SDS011;13578;53.450;15.496;2023-03-14T15:23:01;2.30;;;1.05;;
25721;SDS011;13578;53.450;15.496;2023-03-14T15:26:02;2.50;;;1.30;;
25721;SDS011;13578;53.450;15.496;2023-03-14T15:29:12;3.08;;;1.33;;
25721;SDS011;13578;53.450;15.496;2023-03-14T15:32:13;3.70;;;1.33;;
25721;SDS011;13578;53.450;15.496;2023-03-14T15:35:16;5.68;;;1.20;;
25721;SDS011;13578;53.450;15.496;2023-03-14T15:38:18;2.88;;;1.70;;
25721;SDS011;13578;53.450;15.496;2023-03-14T15:41:22;3.13;;;1.13;;
25721;SDS011;13578;53.450;15.496;2023-03-14T15:44:23;2.17;;;1.20;;
25721;SDS011;13578;53.450;15.496;2023-03-14T15:47:24;1.52;;;1.05;;
25721;SDS011;13578;53.450;15.496;2023-03-14T15:50:27;1.67;;;1.08;;
25721;SDS011;13578;53.450;15.496;2023-03-14T15:53:28;3.08;;;0.60;;
25721;SDS011;13578;53.450;15.496;2023-03-14T15:56:29;2.17;;;0.95;;
25721;SDS011;13578;53.450;15.496;2023-03-14T15:59:30;1.42;;;0.90;;
25721;SDS011;13578;53.450;15.496;2023-03-14T16:02:31;3.22;;;0.95;;
25721;SDS011;13578;53.450;15.496;2023-03-14T16:05:32;1.50;;;0.70;;
25721;SDS011;13578;53.450;15.496;2023-03-14T16:08:32;3.58;;;1.05;;
25721;SDS011;13578;53.450;15.496;2023-03-14T16:11:33;2.75;;;0.98;;
25721;SDS011;13578;53.450;15.496;2023-03-14T16:14:34;3.85;;;0.98;;
25721;SDS011;13578;53.450;15.496;2023-03-14T16:17:34;1.13;;;0.70;;
25721;SDS011;13578;53.450;15.496;2023-03-14T16:20:35;1.00;;;0.60;;
25721;SDS011;13578;53.450;15.496;2023-03-14T16:23:36;0.73;;;0.70;;
25721;SDS011;13578;53.450;15.496;2023-03-14T16:26:38;2.13;;;0.90;;
25721;SDS011;13578;53.450;15.496;2023-03-14T16:29:38;1.67;;;1.15;;
25721;SDS011;13578;53.450;15.496;2023-03-14T16:32:39;9.32;;;1.52;;
25721;SDS011;13578;53.450;15.496;2023-03-14T16:35:40;3.80;;;2.20;;
25721;SDS011;13578;53.450;15.496;2023-03-14T16:38:42;3.88;;;2.60;;
25721;SDS011;13578;53.450;15.496;2023-03-14T16:41:44;1.73;;;1.63;;
25721;SDS011;13578;53.450;15.496;2023-03-14T16:44:45;2.97;;;2.78;;
25721;SDS011;13578;53.450;15.496;2023-03-14T16:47:46;2.65;;;2.45;;
25721;SDS011;13578;53.450;15.496;2023-03-14T16:50:48;3.05;;;2.95;;
25721;SDS011;13578;53.450;15.496;2023-03-14T16:53:50;3.70;;;3.42;;
25721;SDS011;13578;53.450;15.496;2023-03-14T16:56:50;9.23;;;3.78;;
25721;SDS011;13578;53.450;15.496;2023-03-14T16:59:52;5.43;;;4.18;;
25721;SDS011;13578;53.450;15.496;2023-03-14T17:02:53;3.55;;;3.35;;
25721;SDS011;13578;53.450;15.496;2023-03-14T17:05:53;5.25;;;4.85;;
25721;SDS011;13578;53.450;15.496;2023-03-14T17:08:55;7.43;;;5.45;;
25721;SDS011;13578;53.450;15.496;2023-03-14T17:11:56;4.10;;;3.83;;
25721;SDS011;13578;53.450;15.496;2023-03-14T17:14:58;3.80;;;3.60;;
25721;SDS011;13578;53.450;15.496;2023-03-14T17:17:59;3.97;;;3.72;;
25721;SDS011;13578;53.450;15.496;2023-03-14T17:21:02;3.80;;;3.60;;
25721;SDS011;13578;53.450;15.496;2023-03-14T17:24:03;4.15;;;3.90;;
25721;SDS011;13578;53.450;15.496;2023-03-14T17:27:04;4.13;;;3.92;;
25721;SDS011;13578;53.450;15.496;2023-03-14T17:30:04;5.55;;;4.35;;
25721;SDS011;13578;53.450;15.496;2023-03-14T17:33:06;5.35;;;4.95;;
25721;SDS011;13578;53.450;15.496;2023-03-14T17:36:07;3.88;;;3.67;;
25721;SDS011;13578;53.450;15.496;2023-03-14T17:39:08;4.95;;;4.45;;
25721;SDS011;13578;53.450;15.496;2023-03-14T17:42:09;4.30;;;3.97;;
25721;SDS011;13578;53.450;15.496;2023-03-14T17:45:10;9.35;;;6.32;;
25721;SDS011;13578;53.450;15.496;2023-03-14T17:48:10;5.15;;;4.75;;
25721;SDS011;13578;53.450;15.496;2023-03-14T17:51:12;6.53;;;5.78;;
25721;SDS011;13578;53.450;15.496;2023-03-14T17:54:13;5.03;;;4.63;;
25721;SDS011;13578;53.450;15.496;2023-03-14T17:57:14;4.60;;;4.30;;
25721;SDS011;13578;53.450;15.496;2023-03-14T18:00:14;5.28;;;4.93;;
25721;SDS011;13578;53.450;15.496;2023-03-14T18:03:16;6.68;;;6.03;;
25721;SDS011;13578;53.450;15.496;2023-03-14T18:06:18;4.78;;;4.47;;
25721;SDS011;13578;53.450;15.496;2023-03-14T18:09:18;4.22;;;4.03;;
25721;SDS011;13578;53.450;15.496;2023-03-14T18:12:20;5.30;;;4.90;;
25721;SDS011;13578;53.450;15.496;2023-03-14T18:15:21;4.45;;;4.20;;
25721;SDS011;13578;53.450;15.496;2023-03-14T18:18:22;5.32;;;5.00;;
25721;SDS011;13578;53.450;15.496;2023-03-14T18:21:24;4.20;;;4.00;;
25721;SDS011;13578;53.450;15.496;2023-03-14T18:24:26;5.13;;;4.72;;
25721;SDS011;13578;53.450;15.496;2023-03-14T18:27:26;5.00;;;4.60;;
25721;SDS011;13578;53.450;15.496;2023-03-14T18:30:27;6.60;;;6.00;;
25721;SDS011;13578;53.450;15.496;2023-03-14T18:33:28;6.32;;;5.68;;
25721;SDS011;13578;53.450;15.496;2023-03-14T18:36:36;4.35;;;4.05;;
25721;SDS011;13578;53.450;15.496;2023-03-14T18:39:38;4.95;;;4.55;;
25721;SDS011;13578;53.450;15.496;2023-03-14T18:42:38;5.93;;;5.40;;
25721;SDS011;13578;53.450;15.496;2023-03-14T18:45:39;5.68;;;4.90;;
25721;SDS011;13578;53.450;15.496;2023-03-14T18:48:40;6.47;;;4.95;;
25721;SDS011;13578;53.450;15.496;2023-03-14T18:51:42;4.55;;;4.25;;
25721;SDS011;13578;53.450;15.496;2023-03-14T18:54:43;5.28;;;4.88;;
25721;SDS011;13578;53.450;15.496;2023-03-14T18:57:43;7.30;;;5.75;;
25721;SDS011;13578;53.450;15.496;2023-03-14T19:00:44;4.50;;;4.20;;
25721;SDS011;13578;53.450;15.496;2023-03-14T19:03:45;5.57;;;5.28;;
25721;SDS011;13578;53.450;15.496;2023-03-14T19:06:48;4.22;;;4.00;;
25721;SDS011;13578;53.450;15.496;2023-03-14T19:09:49;5.30;;;4.90;;
25721;SDS011;13578;53.450;15.496;2023-03-14T19:12:50;4.63;;;4.32;;
25721;SDS011;13578;53.450;15.496;2023-03-14T19:15:50;5.55;;;5.05;;